Aérodrome :
LOGIN :

S'inscrire | Disclaimer

   EN    FR    IT 

 










Légende :    VFR   VFR Marginal   IFR   IFR Intensif   IFR Très Intensif
Visi : 
Plafond : 
>= 8 km
>= 3000ft
5 à 8 km
1000 à 3000 ft
1500m à 5 km
500 à 1000 ft
800 à 1500m
200 à 500 ft
< 800m
< 200 ft
Symboles :   Orages  Brouillard  Fortes neiges  Fortes précipitations  Vent > 20 kt
SIGMETs :   Divers  Orages  Givrage  Turbulence  Onde Orograph.  Cendres Volcan.







- Altitude de l'aérodrome : 184 ft
- Code IATA : BRU


EBBR - Bruxelles

DERNIER METAR :
  • 211250Z 31008KT 270V340 CAVOK 26/11 Q1012 NOSIG

METARs EXPIRÉS :
  • 211220Z 35007KT 300V030 CAVOK 26/12 Q1012 NOSIG
  • 211150Z 30007KT 270V010 CAVOK 25/11 Q1012 NOSIG
  • 211120Z 34004KT 270V070 CAVOK 26/12 Q1012 NOSIG
  • 211050Z 33005KT 280V090 CAVOK 25/13 Q1012 NOSIG
  • 211020Z 33006KT 280V040 CAVOK 24/12 Q1012 NOSIG

TAF TAF EBBR
Valide du 21 à 12h jusqu'au 22 à 18h UTC


211130Z 2112/2218 31006KT 9999 FEW040
Pas de NOTAMs connus pour ce terrain.



MET'MAP, la Météo Aéronautique d'un coup d'oeil ! - Copyright ORBIFLY Décembre 2007 - Disclaimer

ORBIFLY MET'MAP TEAM :

Programmation & Développement : Alexandra Zaïnal
Conception & Développement : Baudouin d'Aumeries
Co-Programmation & Développement : Marc-Olivier Méhu
Soutien technique & logistique : Manuel Goepfert

Contact : metmap@orbifly.com




SOURCES & CREDITS :

   NOAA